Notice: Undefined index: name in /home/yearbywe/public_html/pwsTEST/metar_load_funct.php on line 53

Notice: Undefined index: humidity_percent in /home/yearbywe/public_html/pwsTEST/metar_load_funct.php on line 95
Metar Aviation Weather Data     EGNV
 X  CloseMetar Aviation Weather Data     EGNV

Temperature

23°C Temp

8°C Dewpoint

% Humidity



Wind

16 KM/H

10 MPH

 9 KTS



180°
Due South
Current Conditions

Clear Clear
Pressure 1025.92 (hPa) - 30.3 (in)
Visibility 6.2 (mi) - 10 (km)
Airport
Airport-code EGNV

Location 0 (mi)

Metar:
EGNV 291620Z 18009KT 140V220 CAVOK 23/08 Q1026


Notice: Undefined offset: 1 in /home/yearbywe/public_html/pwsTEST/metar_popup.php on line 198

Notice: Undefined offset: 1 in /home/yearbywe/public_html/pwsTEST/metar_popup.php on line 200
Time: 10-11-2034 00:00